createdAt,value
2022-08-30T00:00:44.107Z,86.58
2022-08-30T00:03:19.096Z,86.65
2022-08-30T00:05:52.507Z,87.02
2022-08-30T00:08:29.783Z,86.72
2022-08-30T00:11:04.917Z,87.21
2022-08-30T00:13:38.583Z,87.05
2022-08-30T00:16:12.385Z,87.02
2022-08-30T00:18:47.743Z,87.72
2022-08-30T00:21:21.392Z,87.37
2022-08-30T00:23:54.759Z,88.17
2022-08-30T00:26:27.869Z,87.85
2022-08-30T00:29:00.935Z,88.36
2022-08-30T00:31:34.121Z,88.41
2022-08-30T00:34:08.634Z,88.55
2022-08-30T00:36:41.686Z,89.64
2022-08-30T00:39:14.794Z,89.58
2022-08-30T00:41:48.649Z,89.26
2022-08-30T00:44:21.774Z,89.61
2022-08-30T00:46:54.862Z,89.15
2022-08-30T00:49:30.653Z,89.31
2022-08-30T00:52:06.562Z,89.61
2022-08-30T00:54:43.337Z,89.75
2022-08-30T00:57:16.708Z,89.75
2022-08-30T00:59:51.318Z,90.05
2022-08-30T01:02:24.737Z,90.49
2022-08-30T01:04:59.733Z,90.49
2022-08-30T01:07:34.745Z,89.63
2022-08-30T01:10:11.462Z,90.01
2022-08-30T01:12:46.571Z,89.73
2022-08-30T01:15:19.901Z,89.93
2022-08-30T01:17:54.369Z,89.80
2022-08-30T01:20:37.285Z,89.96
2022-08-30T01:23:16.706Z,89.61
2022-08-30T01:25:51.747Z,90.26
2022-08-30T01:28:28.533Z,89.91
2022-08-30T01:31:02.677Z,90.86
2022-08-30T01:33:38.188Z,89.89
2022-08-30T01:36:15.438Z,89.43
2022-08-30T01:38:54.280Z,89.51
2022-08-30T01:41:31.831Z,89.83
2022-08-30T01:44:10.221Z,89.87
2022-08-30T01:46:47.783Z,90.53
2022-08-30T01:49:27.718Z,90.71
2022-08-30T01:52:01.582Z,90.23
2022-08-30T01:54:41.149Z,90.83
2022-08-30T01:57:19.343Z,91.32
2022-08-30T01:59:52.439Z,91.57
2022-08-30T02:02:29.874Z,90.82
2022-08-30T02:05:03.110Z,91.08
2022-08-30T02:07:36.261Z,90.13
2022-08-30T02:10:11.561Z,90.56
2022-08-30T02:12:44.666Z,90.29
2022-08-30T02:15:18.369Z,90.03
2022-08-30T02:17:51.475Z,91.07
2022-08-30T02:20:24.835Z,90.27
2022-08-30T02:23:01.179Z,90.25
2022-08-30T02:25:36.137Z,90.25
2022-08-30T02:28:10.003Z,90.21
2022-08-30T02:30:43.288Z,90.82
2022-08-30T02:33:17.129Z,90.85
2022-08-30T02:35:52.696Z,90.55
2022-08-30T02:38:28.396Z,90.86
2022-08-30T02:41:04.625Z,90.36
2022-08-30T02:43:39.181Z,90.00
2022-08-30T02:46:13.556Z,90.65
2022-08-30T02:48:48.425Z,90.42
2022-08-30T02:51:23.443Z,90.94
2022-08-30T02:53:56.593Z,90.99
2022-08-30T02:56:31.145Z,90.85
2022-08-30T02:59:04.413Z,91.51
2022-08-30T03:01:39.123Z,91.29
2022-08-30T03:04:13.060Z,91.45
2022-08-30T03:06:46.138Z,91.90
2022-08-30T03:09:19.280Z,91.82
2022-08-30T03:11:53.763Z,91.98
2022-08-30T03:14:28.119Z,91.73
2022-08-30T03:17:01.208Z,91.60
2022-08-30T03:19:36.287Z,91.51
2022-08-30T03:22:09.435Z,91.88
2022-08-30T03:24:42.725Z,91.94
2022-08-30T03:27:17.151Z,92.08
2022-08-30T03:29:50.272Z,91.68
2022-08-30T03:32:24.489Z,91.18
2022-08-30T03:34:57.586Z,91.44
2022-08-30T03:37:30.650Z,91.69
2022-08-30T03:40:05.050Z,91.77
2022-08-30T03:42:43.464Z,91.86
2022-08-30T03:45:19.650Z,92.08
2022-08-30T03:47:52.748Z,92.25
2022-08-30T03:50:26.059Z,92.58
2022-08-30T03:53:01.957Z,92.51
2022-08-30T03:55:35.129Z,92.93
2022-08-30T03:58:09.897Z,93.11
2022-08-30T04:00:43.226Z,92.82
2022-08-30T04:03:16.692Z,92.07
2022-08-30T04:05:49.888Z,91.78
2022-08-30T04:08:23.507Z,92.21
2022-08-30T04:10:56.775Z,92.38
2022-08-30T04:13:31.458Z,92.39
2022-08-30T04:16:05.072Z,92.39
2022-08-30T04:18:38.710Z,92.60
2022-08-30T04:21:14.145Z,92.42
2022-08-30T04:23:47.908Z,92.23
2022-08-30T04:26:21.117Z,91.66
2022-08-30T04:28:56.814Z,92.16
2022-08-30T04:31:30.298Z,92.81
2022-08-30T04:34:03.599Z,92.19
2022-08-30T04:36:36.699Z,92.18
2022-08-30T04:39:09.889Z,92.49
2022-08-30T04:41:42.990Z,92.41
2022-08-30T04:44:19.506Z,92.69
2022-08-30T04:46:53.093Z,92.38
2022-08-30T04:49:26.221Z,92.35
2022-08-30T04:51:59.332Z,92.80
2022-08-30T04:54:32.820Z,92.90
2022-08-30T04:57:07.383Z,92.91
2022-08-30T04:59:41.857Z,92.48
2022-08-30T05:02:15.124Z,92.85
2022-08-30T05:05:02.232Z,92.64
2022-08-30T05:07:36.026Z,92.09
2022-08-30T05:10:11.593Z,92.06
2022-08-30T05:12:44.863Z,91.83
2022-08-30T05:15:19.534Z,91.73
2022-08-30T05:17:52.653Z,91.82
2022-08-30T05:20:25.934Z,91.42
2022-08-30T05:22:59.004Z,91.40
2022-08-30T05:25:38.086Z,91.05
2022-08-30T05:28:11.203Z,90.31
2022-08-30T05:30:45.638Z,88.32
2022-08-30T05:33:18.718Z,88.31
2022-08-30T05:35:51.826Z,86.65
2022-08-30T05:38:24.923Z,87.20
2022-08-30T05:40:58.001Z,86.70
2022-08-30T05:43:32.263Z,83.25
2022-08-30T05:46:10.312Z,82.65
2022-08-30T05:48:43.559Z,81.05
2022-08-30T05:51:19.699Z,78.94
2022-08-30T05:53:54.516Z,76.52
2022-08-30T05:56:31.762Z,74.65
2022-08-30T05:59:07.270Z,73.39
2022-08-30T06:01:44.132Z,71.61
2022-08-30T06:04:17.807Z,69.21
2022-08-30T06:06:51.360Z,69.54
2022-08-30T06:09:24.434Z,67.33
2022-08-30T06:11:57.621Z,64.92
2022-08-30T06:14:30.710Z,64.79
2022-08-30T06:17:05.226Z,64.66
2022-08-30T06:19:38.302Z,63.35
2022-08-30T06:22:14.367Z,62.45
2022-08-30T06:24:57.324Z,61.17
2022-08-30T06:27:31.215Z,60.70
2022-08-30T06:30:08.145Z,61.04
2022-08-30T06:32:42.745Z,60.82
2022-08-30T06:35:15.836Z,60.27
2022-08-30T06:37:49.005Z,58.73
2022-08-30T06:40:22.950Z,58.40
2022-08-30T06:42:56.200Z,57.49
2022-08-30T06:45:30.987Z,56.67
2022-08-30T06:48:05.694Z,55.90
2022-08-30T06:50:39.001Z,56.73
2022-08-30T06:53:12.146Z,55.28
2022-08-30T06:55:45.296Z,55.13
2022-08-30T06:58:18.500Z,54.64
2022-08-30T07:00:51.971Z,54.21
2022-08-30T07:03:27.334Z,55.04
2022-08-30T07:06:00.422Z,54.33
2022-08-30T07:08:33.656Z,54.93
2022-08-30T07:11:07.654Z,53.50
2022-08-30T07:13:40.845Z,52.74
2022-08-30T07:16:15.986Z,51.95
2022-08-30T07:18:54.846Z,50.66
2022-08-30T07:21:34.640Z,51.88
2022-08-30T07:24:10.156Z,53.53
2022-08-30T07:26:46.770Z,51.73
2022-08-30T07:29:21.155Z,51.08
2022-08-30T07:31:54.361Z,51.21
2022-08-30T07:34:28.810Z,51.35
2022-08-30T07:37:01.932Z,52.03
2022-08-30T07:39:41.718Z,53.41
2022-08-30T07:42:19.484Z,52.00
2022-08-30T07:44:56.494Z,51.17
2022-08-30T07:47:29.972Z,51.59
2022-08-30T07:50:05.868Z,50.78
2022-08-30T07:52:39.142Z,51.35
2022-08-30T07:55:12.304Z,51.78
2022-08-30T07:57:45.457Z,52.18
2022-08-30T08:00:18.802Z,51.54
2022-08-30T08:02:51.963Z,51.87
2022-08-30T08:05:26.523Z,51.49
2022-08-30T08:07:59.599Z,50.91
2022-08-30T08:10:33.151Z,49.54
2022-08-30T08:13:08.288Z,49.55
2022-08-30T08:15:42.474Z,48.49
2022-08-30T08:18:15.765Z,48.77
2022-08-30T08:20:50.312Z,49.30
2022-08-30T08:23:27.285Z,48.19
2022-08-30T08:26:00.550Z,49.59
2022-08-30T08:28:33.854Z,47.77
2022-08-30T08:31:16.841Z,49.32
2022-08-30T08:33:50.209Z,49.13
2022-08-30T08:36:25.302Z,48.70
2022-08-30T08:38:58.722Z,48.19
2022-08-30T08:41:51.991Z,46.78
2022-08-30T08:44:42.334Z,47.02
2022-08-30T08:47:19.694Z,47.44
2022-08-30T08:49:57.551Z,43.94
2022-08-30T08:53:04.401Z,45.09
2022-08-30T08:55:44.205Z,44.58
2022-08-30T08:58:24.708Z,44.97
2022-08-30T09:00:59.541Z,44.34
2022-08-30T09:03:32.684Z,43.95
2022-08-30T09:06:35.097Z,43.44
2022-08-30T09:09:09.945Z,42.75
2022-08-30T09:11:44.207Z,43.60
2022-08-30T09:14:24.276Z,42.71
2022-08-30T09:17:07.181Z,42.66
2022-08-30T09:19:45.202Z,42.90
2022-08-30T09:22:28.203Z,43.70
2022-08-30T09:25:08.786Z,43.68
2022-08-30T09:27:46.358Z,43.71
2022-08-30T09:30:24.479Z,44.06
2022-08-30T09:33:02.336Z,44.18
2022-08-30T09:35:41.059Z,41.96
2022-08-30T09:38:22.464Z,41.80
2022-08-30T09:41:01.182Z,41.63
2022-08-30T09:43:37.622Z,42.01
2022-08-30T09:46:16.258Z,41.26
2022-08-30T09:48:51.424Z,41.59
2022-08-30T09:51:43.676Z,42.26
2022-08-30T09:54:25.540Z,42.66
2022-08-30T09:57:12.851Z,42.09
2022-08-30T09:59:54.138Z,41.90
2022-08-30T10:03:06.124Z,41.07
2022-08-30T10:05:58.350Z,42.49
2022-08-30T10:08:47.463Z,42.02
2022-08-30T10:11:33.680Z,41.68
2022-08-30T10:14:41.387Z,39.91
2022-08-30T10:17:29.543Z,38.81
2022-08-30T10:20:21.834Z,40.36
2022-08-30T10:23:06.152Z,40.81
2022-08-30T10:25:49.189Z,39.87
2022-08-30T10:28:34.367Z,39.85
2022-08-30T10:31:34.160Z,39.39
2022-08-30T10:34:16.974Z,38.78
2022-08-30T10:36:59.746Z,39.06
2022-08-30T10:39:41.093Z,38.97
2022-08-30T10:42:22.394Z,40.24
2022-08-30T10:45:07.167Z,38.67
2022-08-30T10:47:49.587Z,38.85
2022-08-30T10:50:33.915Z,39.95
2022-08-30T10:53:16.297Z,38.74
2022-08-30T10:55:57.471Z,38.56
2022-08-30T10:58:33.605Z,38.98
2022-08-30T11:01:31.952Z,39.25
2022-08-30T11:04:34.666Z,39.04
2022-08-30T11:07:23.686Z,38.82
2022-08-30T11:10:42.472Z,38.00
2022-08-30T11:13:27.435Z,39.09
2022-08-30T11:16:07.406Z,38.28
2022-08-30T11:18:51.172Z,37.97
2022-08-30T11:21:36.791Z,38.62
2022-08-30T11:24:15.239Z,37.62
2022-08-30T11:27:03.434Z,37.59
2022-08-30T11:29:44.306Z,37.92
2022-08-30T11:32:58.644Z,38.78
2022-08-30T11:35:48.323Z,39.14
2022-08-30T11:39:03.734Z,36.50
2022-08-30T11:41:44.603Z,36.94
2022-08-30T11:44:34.478Z,36.99
2022-08-30T11:47:41.145Z,36.21
2022-08-30T11:50:21.748Z,36.86
2022-08-30T11:53:06.005Z,36.19
2022-08-30T11:55:58.081Z,37.62
2022-08-30T11:58:48.428Z,37.78
2022-08-30T12:01:51.190Z,37.00
2022-08-30T12:04:39.169Z,37.70
2022-08-30T12:07:14.835Z,38.51
2022-08-30T12:10:06.265Z,39.02
2022-08-30T12:12:55.656Z,39.07
2022-08-30T12:16:00.027Z,37.96
2022-08-30T12:18:45.779Z,37.74
2022-08-30T12:21:43.605Z,37.06
2022-08-30T12:24:27.343Z,37.61
2022-08-30T12:27:05.970Z,38.10
2022-08-30T12:29:53.732Z,37.48
2022-08-30T12:32:29.567Z,38.30
2022-08-30T12:35:07.946Z,37.42
2022-08-30T12:37:43.862Z,37.36
2022-08-30T12:40:25.264Z,36.57
2022-08-30T12:43:03.182Z,37.36
2022-08-30T12:45:50.990Z,36.93
2022-08-30T12:48:26.660Z,36.23
2022-08-30T12:51:03.231Z,36.35
2022-08-30T12:53:45.273Z,37.14
2022-08-30T12:56:47.118Z,37.27
2022-08-30T12:59:55.526Z,36.71
2022-08-30T13:02:52.452Z,35.97
2022-08-30T13:05:53.189Z,35.81
2022-08-30T13:08:37.151Z,35.52
2022-08-30T13:11:29.345Z,35.15
2022-08-30T13:14:30.029Z,35.57
2022-08-30T13:17:14.784Z,35.81
2022-08-30T13:20:01.719Z,35.63
2022-08-30T13:22:38.876Z,35.50
2022-08-30T13:25:14.534Z,36.34
2022-08-30T13:27:50.011Z,35.10
2022-08-30T13:30:25.257Z,35.50
2022-08-30T13:33:02.211Z,35.53
2022-08-30T13:35:38.854Z,35.79
2022-08-30T13:38:13.589Z,35.87
2022-08-30T13:40:48.292Z,36.39
2022-08-30T13:43:22.250Z,36.33
2022-08-30T13:45:57.667Z,36.67
2022-08-30T13:48:32.434Z,36.81
2022-08-30T13:51:09.589Z,36.49
2022-08-30T13:53:53.315Z,35.08
2022-08-30T13:56:32.011Z,35.77
2022-08-30T13:59:06.965Z,35.24
2022-08-30T14:04:38.570Z,36.79
2022-08-30T14:07:16.961Z,37.04
2022-08-30T14:10:30.444Z,36.97
2022-08-30T14:12:53.054Z,37.67
2022-08-30T14:15:28.169Z,37.85
2022-08-30T14:18:03.057Z,37.96
2022-08-30T14:20:38.548Z,37.76
2022-08-30T14:23:15.443Z,38.18
2022-08-30T14:25:50.823Z,39.32
2022-08-30T14:28:26.790Z,39.06
2022-08-30T14:31:01.731Z,39.63
2022-08-30T14:33:36.860Z,39.67
2022-08-30T14:36:15.500Z,39.14
2022-08-30T14:38:52.321Z,38.55
2022-08-30T14:41:27.305Z,38.14
2022-08-30T14:44:02.292Z,38.82
2022-08-30T14:46:37.583Z,39.74
2022-08-30T14:49:13.136Z,38.74
2022-08-30T14:51:48.826Z,38.23
2022-08-30T14:54:27.868Z,38.34
2022-08-30T14:57:03.404Z,39.43
2022-08-30T14:59:38.683Z,39.41
2022-08-30T15:02:14.285Z,38.47
2022-08-30T15:04:49.563Z,39.08
2022-08-30T15:07:24.607Z,38.40
2022-08-30T15:10:01.054Z,38.43
2022-08-30T15:12:36.870Z,38.37
2022-08-30T15:15:13.825Z,39.05
2022-08-30T15:17:48.812Z,39.76
2022-08-30T15:20:23.602Z,40.03
2022-08-30T15:22:58.747Z,39.67
2022-08-30T15:25:35.001Z,40.28
2022-08-30T15:28:15.525Z,39.50
2022-08-30T15:30:52.434Z,39.05
2022-08-30T15:33:27.747Z,39.62
2022-08-30T15:36:05.395Z,39.97
2022-08-30T15:38:40.386Z,39.47
2022-08-30T15:41:17.972Z,39.14
2022-08-30T15:43:53.399Z,39.26
2022-08-30T15:46:33.395Z,38.86
2022-08-30T15:49:10.439Z,39.08
2022-08-30T15:51:47.217Z,38.35
2022-08-30T15:54:25.189Z,39.15
2022-08-30T15:57:02.146Z,39.39
2022-08-30T15:59:40.538Z,38.78
2022-08-30T16:02:15.614Z,39.63
2022-08-30T16:04:51.624Z,39.88
2022-08-30T16:07:27.692Z,40.20
2022-08-30T16:10:02.728Z,40.52
2022-08-30T16:12:39.072Z,39.88
2022-08-30T16:15:14.924Z,40.68
2022-08-30T16:17:49.601Z,41.09
2022-08-30T16:20:24.798Z,40.96
2022-08-30T16:23:00.152Z,41.27
2022-08-30T16:25:39.961Z,41.44
2022-08-30T16:28:17.310Z,41.92
2022-08-30T16:30:52.637Z,42.02
2022-08-30T16:33:27.931Z,42.13
2022-08-30T16:36:02.679Z,42.59
2022-08-30T16:38:37.371Z,42.62
2022-08-30T16:41:18.971Z,42.80
2022-08-30T16:43:57.560Z,42.99
2022-08-30T16:46:33.360Z,42.78
2022-08-30T16:49:08.765Z,42.25
2022-08-30T16:51:44.740Z,42.94
2022-08-30T16:54:19.101Z,43.14
2022-08-30T16:56:55.675Z,43.01
2022-08-30T16:59:31.617Z,42.80
2022-08-30T17:02:06.541Z,42.61
2022-08-30T17:04:42.673Z,42.96
2022-08-30T17:07:21.498Z,42.64
2022-08-30T17:09:57.700Z,43.29
2022-08-30T17:12:33.075Z,43.37
2022-08-30T17:15:11.042Z,43.09
2022-08-30T17:17:45.962Z,43.52
2022-08-30T17:20:20.661Z,43.82
2022-08-30T17:22:55.537Z,43.83
2022-08-30T17:25:33.919Z,43.76
2022-08-30T17:28:09.192Z,43.73
2022-08-30T17:30:45.760Z,43.56
2022-08-30T17:33:20.460Z,44.41
2022-08-30T17:35:56.469Z,44.72
2022-08-30T17:38:31.424Z,44.43
2022-08-30T17:41:08.545Z,44.36
2022-08-30T17:43:43.373Z,44.34
2022-08-30T17:46:21.131Z,44.54
2022-08-30T17:49:01.032Z,45.04
2022-08-30T17:51:37.238Z,44.71
2022-08-30T17:54:14.615Z,44.79
2022-08-30T17:56:49.636Z,45.09
2022-08-30T17:59:29.322Z,45.30
2022-08-30T18:02:11.239Z,45.48
2022-08-30T18:04:46.458Z,44.95
2022-08-30T18:07:22.049Z,45.25
2022-08-30T18:09:57.188Z,45.53
2022-08-30T18:12:33.884Z,45.15
2022-08-30T18:15:12.244Z,44.79
2022-08-30T18:17:49.435Z,45.76
2022-08-30T18:20:26.372Z,45.89
2022-08-30T18:23:01.422Z,45.97
2022-08-30T18:25:35.944Z,46.46
2022-08-30T18:28:12.404Z,46.46
2022-08-30T18:30:47.519Z,47.20
2022-08-30T18:33:24.001Z,47.52
2022-08-30T18:35:59.687Z,48.82
2022-08-30T18:38:35.736Z,49.63
2022-08-30T18:41:14.352Z,50.54
2022-08-30T18:43:54.967Z,50.47
2022-08-30T18:47:31.880Z,51.71
2022-08-30T18:49:38.752Z,51.53
2022-08-30T18:52:14.984Z,52.31
2022-08-30T18:54:52.593Z,53.54
2022-08-30T18:57:27.910Z,54.33
2022-08-30T19:00:03.828Z,54.64
2022-08-30T19:02:39.488Z,54.86
2022-08-30T19:05:22.726Z,55.20
2022-08-30T19:07:58.598Z,56.18
2022-08-30T19:10:33.558Z,57.29
2022-08-30T19:13:07.956Z,57.60
2022-08-30T19:15:42.821Z,58.61
2022-08-30T19:18:17.766Z,58.70
2022-08-30T19:20:53.631Z,59.25
2022-08-30T19:23:34.082Z,58.95
2022-08-30T19:26:09.067Z,59.61
2022-08-30T19:28:46.098Z,60.12
2022-08-30T19:31:20.684Z,60.43
2022-08-30T19:33:55.444Z,60.98
2022-08-30T19:36:32.782Z,61.43
2022-08-30T19:39:07.612Z,62.06
2022-08-30T19:41:42.955Z,62.41
2022-08-30T19:44:18.146Z,62.56
2022-08-30T19:46:54.506Z,62.58
2022-08-30T19:49:30.598Z,62.78
2022-08-30T19:52:08.328Z,62.86
2022-08-30T19:54:42.939Z,63.15
2022-08-30T19:57:17.816Z,63.12
2022-08-30T19:59:52.580Z,63.17
2022-08-30T20:02:27.518Z,63.20
2022-08-30T20:05:04.302Z,63.79
2022-08-30T20:07:40.760Z,64.22
2022-08-30T20:10:20.155Z,64.24
2022-08-30T20:12:54.491Z,64.30
2022-08-30T20:15:29.015Z,65.15
2022-08-30T20:18:06.249Z,66.03
2022-08-30T20:20:50.225Z,65.65
2022-08-30T20:23:26.798Z,66.31
2022-08-30T20:26:02.334Z,66.29
2022-08-30T20:28:37.254Z,66.24
2022-08-30T20:31:12.470Z,66.29
2022-08-30T20:33:46.903Z,66.81
2022-08-30T20:36:21.305Z,67.18
2022-08-30T20:38:56.948Z,67.00
2022-08-30T20:41:31.694Z,66.46
2022-08-30T20:44:06.263Z,66.60
2022-08-30T20:46:47.390Z,66.75
2022-08-30T20:49:21.869Z,66.79
2022-08-30T20:51:56.645Z,67.13
2022-08-30T20:54:32.686Z,67.11
2022-08-30T20:57:07.869Z,66.77
2022-08-30T20:59:42.699Z,66.03
2022-08-30T21:02:18.041Z,66.21
2022-08-30T21:04:52.538Z,65.87
2022-08-30T21:07:26.937Z,65.22
2022-08-30T21:10:03.372Z,65.66
2022-08-30T21:12:37.818Z,64.91
2022-08-30T21:15:36.473Z,64.87
2022-08-30T21:18:08.870Z,64.91
2022-08-30T21:20:43.764Z,65.03
2022-08-30T21:23:18.177Z,65.38
2022-08-30T21:25:54.079Z,65.65
2022-08-30T21:28:28.878Z,65.92
2022-08-30T21:31:08.923Z,66.31
2022-08-30T21:33:43.638Z,66.38
2022-08-30T21:36:35.957Z,66.42
2022-08-30T21:39:10.985Z,65.95
2022-08-30T21:41:47.031Z,65.96
2022-08-30T21:44:24.399Z,67.85
2022-08-30T21:46:59.170Z,67.68
2022-08-30T21:49:33.864Z,68.04
2022-08-30T21:52:08.341Z,67.99
2022-08-30T21:54:42.561Z,67.64
2022-08-30T21:57:18.782Z,68.15
2022-08-30T21:59:53.403Z,67.79
2022-08-30T22:02:29.093Z,67.95
2022-08-30T22:05:03.533Z,68.14
2022-08-30T22:07:37.885Z,67.84
2022-08-30T22:10:14.834Z,68.14
2022-08-30T22:12:50.882Z,68.88
2022-08-30T22:15:26.955Z,68.79
2022-08-30T22:18:02.150Z,68.92
2022-08-30T22:20:37.049Z,67.80
2022-08-30T22:23:12.088Z,67.59
2022-08-30T22:25:51.841Z,67.55
2022-08-30T22:28:27.864Z,67.12
2022-08-30T22:31:04.317Z,66.52
2022-08-30T22:33:39.511Z,66.54
2022-08-30T22:36:19.041Z,66.06
2022-08-30T22:38:55.631Z,66.91
2022-08-30T22:41:34.971Z,67.14
2022-08-30T22:44:10.787Z,67.42
2022-08-30T22:46:45.356Z,67.38
2022-08-30T22:49:19.868Z,65.11
2022-08-30T22:51:54.191Z,64.78
2022-08-30T22:54:29.226Z,64.81
2022-08-30T22:57:04.645Z,65.15
2022-08-30T22:59:40.883Z,65.17
2022-08-30T23:02:15.339Z,65.48
2022-08-30T23:04:50.205Z,65.19
2022-08-30T23:07:24.808Z,65.30
2022-08-30T23:09:59.543Z,65.15
2022-08-30T23:12:37.124Z,65.25
2022-08-30T23:15:16.513Z,65.28
2022-08-30T23:17:51.190Z,64.65
2022-08-30T23:20:25.924Z,63.81
2022-08-30T23:22:58.933Z,64.16
2022-08-30T23:25:52.437Z,63.25
2022-08-30T23:28:44.235Z,63.33
2022-08-30T23:31:37.239Z,63.47
2022-08-30T23:34:28.445Z,63.39
2022-08-30T23:37:20.186Z,63.92
2022-08-30T23:40:12.080Z,64.41
2022-08-30T23:43:05.880Z,63.85
2022-08-30T23:45:57.356Z,63.42
2022-08-30T23:48:52.131Z,63.36
2022-08-30T23:51:44.148Z,63.60
2022-08-30T23:54:35.422Z,64.17
2022-08-30T23:57:27.022Z,64.82
